sensor_id;sensor_type;location;lat;lon;timestamp;pressure;altitude;pressure_sealevel;temperature;humidity
71107;BME280;58763;47.982;11.516;2023-08-01T00:02:00;93450.38;;;18.19;61.31
71107;BME280;58763;47.982;11.516;2023-08-01T00:04:25;93439.34;;;18.15;61.88
71107;BME280;58763;47.982;11.516;2023-08-01T00:06:51;93430.78;;;18.17;61.87
71107;BME280;58763;47.982;11.516;2023-08-01T00:09:18;93434.38;;;18.05;62.19
71107;BME280;58763;47.982;11.516;2023-08-01T00:11:43;93429.16;;;18.00;62.50
71107;BME280;58763;47.982;11.516;2023-08-01T00:14:09;93427.59;;;17.99;62.78
71107;BME280;58763;47.982;11.516;2023-08-01T00:16:34;93415.69;;;18.07;62.83
71107;BME280;58763;47.982;11.516;2023-08-01T00:19:00;93413.31;;;18.06;62.93
71107;BME280;58763;47.982;11.516;2023-08-01T00:21:25;93410.44;;;18.02;63.47
71107;BME280;58763;47.982;11.516;2023-08-01T00:23:51;93412.13;;;17.91;63.65
71107;BME280;58763;47.982;11.516;2023-08-01T00:26:17;93399.72;;;17.81;64.21
71107;BME280;58763;47.982;11.516;2023-08-01T00:28:43;93399.97;;;17.76;64.55
71107;BME280;58763;47.982;11.516;2023-08-01T00:31:09;93393.75;;;17.76;64.44
71107;BME280;58763;47.982;11.516;2023-08-01T00:33:35;93393.38;;;17.77;64.80
71107;BME280;58763;47.982;11.516;2023-08-01T00:36:00;93377.34;;;17.76;65.35
71107;BME280;58763;47.982;11.516;2023-08-01T00:38:27;93378.81;;;17.73;65.54
71107;BME280;58763;47.982;11.516;2023-08-01T00:40:53;93385.47;;;17.60;65.77
71107;BME280;58763;47.982;11.516;2023-08-01T00:43:18;93377.38;;;17.64;65.60
71107;BME280;58763;47.982;11.516;2023-08-01T00:45:45;93374.09;;;17.58;65.80
71107;BME280;58763;47.982;11.516;2023-08-01T00:48:11;93371.72;;;17.57;66.24
71107;BME280;58763;47.982;11.516;2023-08-01T00:50:38;93368.25;;;17.60;66.28
71107;BME280;58763;47.982;11.516;2023-08-01T00:53:04;93358.56;;;17.62;65.73
71107;BME280;58763;47.982;11.516;2023-08-01T00:55:32;93349.31;;;17.67;65.87
71107;BME280;58763;47.982;11.516;2023-08-01T00:57:58;93354.72;;;17.63;66.19
71107;BME280;58763;47.982;11.516;2023-08-01T01:00:24;93346.59;;;17.67;65.77
71107;BME280;58763;47.982;11.516;2023-08-01T01:02:49;93336.38;;;17.64;65.77
71107;BME280;58763;47.982;11.516;2023-08-01T01:05:15;93336.88;;;17.54;65.88
71107;BME280;58763;47.982;11.516;2023-08-01T01:07:41;93330.34;;;17.58;66.36
71107;BME280;58763;47.982;11.516;2023-08-01T01:10:07;93336.88;;;17.54;66.49
71107;BME280;58763;47.982;11.516;2023-08-01T01:12:32;93332.22;;;17.42;67.00
71107;BME280;58763;47.982;11.516;2023-08-01T01:14:59;93328.00;;;17.45;67.42
71107;BME280;58763;47.982;11.516;2023-08-01T01:17:24;93325.72;;;17.47;67.38
71107;BME280;58763;47.982;11.516;2023-08-01T01:19:50;93319.13;;;17.48;67.26
71107;BME280;58763;47.982;11.516;2023-08-01T01:22:16;93310.34;;;17.54;66.91
71107;BME280;58763;47.982;11.516;2023-08-01T01:24:42;93310.84;;;17.60;66.69
71107;BME280;58763;47.982;11.516;2023-08-01T01:27:09;93302.41;;;17.65;66.87
71107;BME280;58763;47.982;11.516;2023-08-01T01:29:35;93302.66;;;17.60;67.00
71107;BME280;58763;47.982;11.516;2023-08-01T01:32:03;93298.28;;;17.71;66.90
71107;BME280;58763;47.982;11.516;2023-08-01T01:34:29;93298.53;;;17.66;66.97
71107;BME280;58763;47.982;11.516;2023-08-01T01:36:55;93299.19;;;17.47;67.55
71107;BME280;58763;47.982;11.516;2023-08-01T01:39:20;93300.41;;;17.50;67.52
71107;BME280;58763;47.982;11.516;2023-08-01T01:41:46;93302.13;;;17.54;67.60
71107;BME280;58763;47.982;11.516;2023-08-01T01:44:12;93293.50;;;17.68;67.43
71107;BME280;58763;47.982;11.516;2023-08-01T01:46:37;93297.13;;;17.72;67.35
71107;BME280;58763;47.982;11.516;2023-08-01T01:49:03;93295.31;;;17.76;66.73
71107;BME280;58763;47.982;11.516;2023-08-01T01:51:30;93289.47;;;17.77;66.64
71107;BME280;58763;47.982;11.516;2023-08-01T01:53:56;93294.94;;;17.77;67.53
71107;BME280;58763;47.982;11.516;2023-08-01T01:56:21;93288.41;;;17.98;67.09
71107;BME280;58763;47.982;11.516;2023-08-01T01:58:47;93293.44;;;17.95;66.70
71107;BME280;58763;47.982;11.516;2023-08-01T02:01:12;93281.00;;;17.98;67.36
71107;BME280;58763;47.982;11.516;2023-08-01T02:03:38;93263.78;;;17.98;67.73
71107;BME280;58763;47.982;11.516;2023-08-01T02:06:03;93263.78;;;17.98;68.28
71107;BME280;58763;47.982;11.516;2023-08-01T02:08:30;93254.16;;;17.88;68.85
71107;BME280;58763;47.982;11.516;2023-08-01T02:10:55;93242.72;;;17.82;69.31
71107;BME280;58763;47.982;11.516;2023-08-01T02:13:27;93239.28;;;17.70;69.86
71107;BME280;58763;47.982;11.516;2023-08-01T02:15:53;93240.31;;;17.65;70.56
71107;BME280;58763;47.982;11.516;2023-08-01T02:18:19;93242.97;;;17.62;70.57
71107;BME280;58763;47.982;11.516;2023-08-01T02:20:45;93238.38;;;17.66;70.60
71107;BME280;58763;47.982;11.516;2023-08-01T02:23:11;93237.22;;;17.67;71.21
71107;BME280;58763;47.982;11.516;2023-08-01T02:25:40;93225.41;;;17.63;71.00
71107;BME280;58763;47.982;11.516;2023-08-01T02:28:06;93224.03;;;17.69;70.88
71107;BME280;58763;47.982;11.516;2023-08-01T02:30:33;93210.06;;;17.74;70.49
71107;BME280;58763;47.982;11.516;2023-08-01T02:32:59;93218.75;;;17.76;69.83
71107;BME280;58763;47.982;11.516;2023-08-01T02:35:24;93207.78;;;17.76;69.87
71107;BME280;58763;47.982;11.516;2023-08-01T02:37:50;93212.53;;;17.79;69.81
71107;BME280;58763;47.982;11.516;2023-08-01T02:40:15;93210.59;;;17.79;69.60
71107;BME280;58763;47.982;11.516;2023-08-01T02:42:41;93210.97;;;17.78;69.85
71107;BME280;58763;47.982;11.516;2023-08-01T02:45:07;93200.91;;;17.82;69.58
71107;BME280;58763;47.982;11.516;2023-08-01T02:47:33;93204.44;;;17.82;69.44
71107;BME280;58763;47.982;11.516;2023-08-01T02:49:59;93201.53;;;17.75;69.76
71107;BME280;58763;47.982;11.516;2023-08-01T02:52:24;93202.34;;;17.76;69.80
71107;BME280;58763;47.982;11.516;2023-08-01T02:54:51;93209.47;;;17.80;70.33
71107;BME280;58763;47.982;11.516;2023-08-01T02:57:16;93205.84;;;17.61;71.31
71107;BME280;58763;47.982;11.516;2023-08-01T02:59:42;93210.88;;;17.59;70.60
71107;BME280;58763;47.982;11.516;2023-08-01T03:02:07;93215.34;;;17.67;70.70
71107;BME280;58763;47.982;11.516;2023-08-01T03:04:33;93224.19;;;17.76;70.43
71107;BME280;58763;47.982;11.516;2023-08-01T03:06:58;93221.34;;;17.88;69.86
71107;BME280;58763;47.982;11.516;2023-08-01T03:09:24;93219.97;;;17.94;69.75
71107;BME280;58763;47.982;11.516;2023-08-01T03:11:49;93229.47;;;18.00;69.47
71107;BME280;58763;47.982;11.516;2023-08-01T03:14:15;93237.59;;;18.12;69.18
71107;BME280;58763;47.982;11.516;2023-08-01T03:16:42;93230.88;;;18.10;69.02
71107;BME280;58763;47.982;11.516;2023-08-01T03:19:07;93222.22;;;18.08;69.56
71107;BME280;58763;47.982;11.516;2023-08-01T03:21:34;93211.66;;;18.06;69.90
71107;BME280;58763;47.982;11.516;2023-08-01T03:24:01;93215.69;;;18.12;69.42
71107;BME280;58763;47.982;11.516;2023-08-01T03:26:27;93227.34;;;18.09;69.49
71107;BME280;58763;47.982;11.516;2023-08-01T03:28:56;93222.22;;;18.08;69.86
71107;BME280;58763;47.982;11.516;2023-08-01T03:31:22;93215.34;;;17.98;70.18
71107;BME280;58763;47.982;11.516;2023-08-01T03:33:48;93212.44;;;17.91;70.67
71107;BME280;58763;47.982;11.516;2023-08-01T03:36:13;93220.91;;;17.86;70.60
71107;BME280;58763;47.982;11.516;2023-08-01T03:38:39;93221.03;;;17.89;70.41
71107;BME280;58763;47.982;11.516;2023-08-01T03:41:05;93223.19;;;18.00;69.92
71107;BME280;58763;47.982;11.516;2023-08-01T03:43:31;93216.84;;;17.95;70.04
71107;BME280;58763;47.982;11.516;2023-08-01T03:45:56;93220.75;;;17.94;70.33
71107;BME280;58763;47.982;11.516;2023-08-01T03:48:23;93233.81;;;18.01;69.92
71107;BME280;58763;47.982;11.516;2023-08-01T03:50:49;93239.00;;;18.06;70.00
71107;BME280;58763;47.982;11.516;2023-08-01T03:53:14;93249.22;;;18.09;69.97
71107;BME280;58763;47.982;11.516;2023-08-01T03:55:40;93241.28;;;18.04;69.88
71107;BME280;58763;47.982;11.516;2023-08-01T03:58:05;93246.69;;;18.01;70.06
71107;BME280;58763;47.982;11.516;2023-08-01T04:00:31;93235.63;;;17.97;68.13
71107;BME280;58763;47.982;11.516;2023-08-01T04:03:00;93245.38;;;17.94;68.10
71107;BME280;58763;47.982;11.516;2023-08-01T04:05:25;93239.91;;;17.94;69.11
71107;BME280;58763;47.982;11.516;2023-08-01T04:07:51;93245.88;;;18.00;68.82
71107;BME280;58763;47.982;11.516;2023-08-01T04:10:23;93239.78;;;18.07;69.00
71107;BME280;58763;47.982;11.516;2023-08-01T04:12:49;93235.91;;;18.08;68.78
71107;BME280;58763;47.982;11.516;2023-08-01T04:15:14;93241.56;;;18.15;68.44
71107;BME280;58763;47.982;11.516;2023-08-01T04:17:41;93236.63;;;18.20;67.43
71107;BME280;58763;47.982;11.516;2023-08-01T04:20:07;93233.06;;;18.20;67.46
71107;BME280;58763;47.982;11.516;2023-08-01T04:22:32;93238.44;;;18.16;67.52
71107;BME280;58763;47.982;11.516;2023-08-01T04:24:58;93242.00;;;18.17;67.68
71107;BME280;58763;47.982;11.516;2023-08-01T04:27:23;93243.06;;;18.12;67.73
71107;BME280;58763;47.982;11.516;2023-08-01T04:29:49;93238.44;;;18.16;67.33
71107;BME280;58763;47.982;11.516;2023-08-01T04:32:15;93242.94;;;18.09;67.74
71107;BME280;58763;47.982;11.516;2023-08-01T04:34:41;93249.69;;;17.95;67.87
71107;BME280;58763;47.982;11.516;2023-08-01T04:37:07;93241.56;;;17.83;69.22
71107;BME280;58763;47.982;11.516;2023-08-01T04:39:34;93245.19;;;17.87;69.44
71107;BME280;58763;47.982;11.516;2023-08-01T04:42:01;93253.41;;;17.87;69.48
71107;BME280;58763;47.982;11.516;2023-08-01T04:44:26;93250.31;;;17.73;70.90
71107;BME280;58763;47.982;11.516;2023-08-01T04:46:52;93249.25;;;17.78;70.34
71107;BME280;58763;47.982;11.516;2023-08-01T04:49:18;93254.63;;;17.74;70.66
71107;BME280;58763;47.982;11.516;2023-08-01T04:51:44;93250.94;;;17.82;70.74
71107;BME280;58763;47.982;11.516;2023-08-01T04:54:10;93250.38;;;17.77;70.73
71107;BME280;58763;47.982;11.516;2023-08-01T04:56:35;93247.41;;;17.82;70.91
71107;BME280;58763;47.982;11.516;2023-08-01T04:59:01;93244.13;;;17.92;70.86
71107;BME280;58763;47.982;11.516;2023-08-01T05:01:27;93246.69;;;18.01;70.69
71107;BME280;58763;47.982;11.516;2023-08-01T05:03:53;93249.06;;;17.86;70.97
71107;BME280;58763;47.982;11.516;2023-08-01T05:06:18;93241.28;;;18.04;71.59
71107;BME280;58763;47.982;11.516;2023-08-01T05:08:44;93251.44;;;18.04;71.66
71107;BME280;58763;47.982;11.516;2023-08-01T05:11:10;93240.16;;;17.89;72.60
71107;BME280;58763;47.982;11.516;2023-08-01T05:13:37;93226.81;;;17.88;72.26
71107;BME280;58763;47.982;11.516;2023-08-01T05:16:02;93232.75;;;17.74;72.68
71107;BME280;58763;47.982;11.516;2023-08-01T05:18:28;93236.34;;;17.63;73.37
71107;BME280;58763;47.982;11.516;2023-08-01T05:20:56;93227.53;;;17.54;74.18
71107;BME280;58763;47.982;11.516;2023-08-01T05:23:22;93212.00;;;17.58;74.07
71107;BME280;58763;47.982;11.516;2023-08-01T05:25:48;93219.78;;;17.56;75.40
71107;BME280;58763;47.982;11.516;2023-08-01T05:28:13;93222.44;;;17.68;75.51
71107;BME280;58763;47.982;11.516;2023-08-01T05:30:40;93218.19;;;17.55;75.54
71107;BME280;58763;47.982;11.516;2023-08-01T05:33:06;93218.09;;;17.67;75.58
71107;BME280;58763;47.982;11.516;2023-08-01T05:35:31;93223.75;;;17.74;75.07
71107;BME280;58763;47.982;11.516;2023-08-01T05:37:57;93220.22;;;17.73;75.36
71107;BME280;58763;47.982;11.516;2023-08-01T05:40:22;93230.25;;;17.69;76.08
71107;BME280;58763;47.982;11.516;2023-08-01T05:42:48;93234.78;;;17.62;76.83
71107;BME280;58763;47.982;11.516;2023-08-01T05:45:14;93231.75;;;17.67;76.93
71107;BME280;58763;47.982;11.516;2023-08-01T05:47:40;93229.31;;;17.62;76.64
71107;BME280;58763;47.982;11.516;2023-08-01T05:50:06;93229.34;;;17.50;77.28
71107;BME280;58763;47.982;11.516;2023-08-01T05:52:33;93237.81;;;17.45;77.97
71107;BME280;58763;47.982;11.516;2023-08-01T05:54:59;93242.66;;;17.36;78.62
71107;BME280;58763;47.982;11.516;2023-08-01T05:57:24;93237.88;;;17.48;78.30
71107;BME280;58763;47.982;11.516;2023-08-01T05:59:50;93246.25;;;17.40;79.47
71107;BME280;58763;47.982;11.516;2023-08-01T06:02:16;93243.13;;;17.10;81.58
71107;BME280;58763;47.982;11.516;2023-08-01T06:04:42;93246.38;;;17.15;81.29
71107;BME280;58763;47.982;11.516;2023-08-01T06:07:07;93245.03;;;17.09;81.03
71107;BME280;58763;47.982;11.516;2023-08-01T06:09:33;93248.63;;;16.98;80.80
71107;BME280;58763;47.982;11.516;2023-08-01T06:11:59;93239.00;;;16.88;80.70
71107;BME280;58763;47.982;11.516;2023-08-01T06:14:25;93242.06;;;16.87;80.43
71107;BME280;58763;47.982;11.516;2023-08-01T06:16:51;93240.06;;;16.99;80.41
71107;BME280;58763;47.982;11.516;2023-08-01T06:19:16;93229.75;;;16.93;80.47
71107;BME280;58763;47.982;11.516;2023-08-01T06:21:42;93230.91;;;16.92;80.28
71107;BME280;58763;47.982;11.516;2023-08-01T06:24:08;93234.28;;;17.01;80.35
71107;BME280;58763;47.982;11.516;2023-08-01T06:26:34;93210.66;;;17.08;79.51
71107;BME280;58763;47.982;11.516;2023-08-01T06:28:59;93214.38;;;17.00;79.27
71107;BME280;58763;47.982;11.516;2023-08-01T06:31:25;93205.22;;;17.08;78.69
71107;BME280;58763;47.982;11.516;2023-08-01T06:33:51;93212.50;;;17.04;79.61
71107;BME280;58763;47.982;11.516;2023-08-01T06:36:17;93204.13;;;16.97;79.05
71107;BME280;58763;47.982;11.516;2023-08-01T06:38:43;93194.75;;;17.10;79.67
71107;BME280;58763;47.982;11.516;2023-08-01T06:41:09;93195.63;;;17.14;78.89
71107;BME280;58763;47.982;11.516;2023-08-01T06:43:34;93186.09;;;17.08;77.00
71107;BME280;58763;47.982;11.516;2023-08-01T06:46:02;93180.38;;;17.13;77.66
71107;BME280;58763;47.982;11.516;2023-08-01T06:48:28;93180.63;;;17.08;78.44
71107;BME280;58763;47.982;11.516;2023-08-01T06:50:54;93178.09;;;17.15;78.53
71107;BME280;58763;47.982;11.516;2023-08-01T06:53:21;93176.94;;;17.16;77.11
71107;BME280;58763;47.982;11.516;2023-08-01T06:55:47;93168.50;;;17.21;77.19
71107;BME280;58763;47.982;11.516;2023-08-01T06:58:13;93161.88;;;17.22;76.76
71107;BME280;58763;47.982;11.516;2023-08-01T07:00:38;93153.97;;;17.17;76.28
71107;BME280;58763;47.982;11.516;2023-08-01T07:03:04;93154.47;;;17.23;75.85
71107;BME280;58763;47.982;11.516;2023-08-01T07:05:30;93158.56;;;17.29;74.91
71107;BME280;58763;47.982;11.516;2023-08-01T07:07:55;93141.38;;;17.28;75.42
71107;BME280;58763;47.982;11.516;2023-08-01T07:10:23;93138.97;;;17.27;74.67
71107;BME280;58763;47.982;11.516;2023-08-01T07:12:49;93148.56;;;17.21;75.59
71107;BME280;58763;47.982;11.516;2023-08-01T07:15:14;93144.59;;;17.34;75.11
71107;BME280;58763;47.982;11.516;2023-08-01T07:17:40;93135.91;;;17.28;74.72
71107;BME280;58763;47.982;11.516;2023-08-01T07:20:05;93140.13;;;17.10;75.12
71107;BME280;58763;47.982;11.516;2023-08-01T07:22:31;93129.97;;;17.11;74.09
71107;BME280;58763;47.982;11.516;2023-08-01T07:24:57;93126.09;;;17.12;74.65
71107;BME280;58763;47.982;11.516;2023-08-01T07:27:22;93130.31;;;17.09;74.51
71107;BME280;58763;47.982;11.516;2023-08-01T07:29:48;93138.44;;;17.21;74.21
71107;BME280;58763;47.982;11.516;2023-08-01T07:32:15;93142.75;;;17.22;73.52
71107;BME280;58763;47.982;11.516;2023-08-01T07:34:41;93150.06;;;17.18;73.91
71107;BME280;58763;47.982;11.516;2023-08-01T07:37:07;93154.91;;;17.25;74.32
71107;BME280;58763;47.982;11.516;2023-08-01T07:39:33;93152.81;;;17.18;74.83
71107;BME280;58763;47.982;11.516;2023-08-01T07:42:00;93148.41;;;17.14;75.11
71107;BME280;58763;47.982;11.516;2023-08-01T07:44:25;93148.22;;;17.22;73.93
71107;BME280;58763;47.982;11.516;2023-08-01T07:46:51;93158.09;;;17.27;73.37
71107;BME280;58763;47.982;11.516;2023-08-01T07:49:21;93135.19;;;17.32;72.93
71107;BME280;58763;47.982;11.516;2023-08-01T07:51:46;93133.78;;;17.38;73.07
71107;BME280;58763;47.982;11.516;2023-08-01T07:54:13;93141.63;;;17.39;71.99
71107;BME280;58763;47.982;11.516;2023-08-01T07:56:39;93138.63;;;17.44;73.21
71107;BME280;58763;47.982;11.516;2023-08-01T07:59:05;93136.00;;;17.48;73.45
71107;BME280;58763;47.982;11.516;2023-08-01T08:01:30;93126.88;;;17.44;72.42
71107;BME280;58763;47.982;11.516;2023-08-01T08:03:56;93117.19;;;17.46;72.52
71107;BME280;58763;47.982;11.516;2023-08-01T08:06:21;93124.69;;;17.49;72.90
71107;BME280;58763;47.982;11.516;2023-08-01T08:08:48;93114.03;;;17.60;73.15
71107;BME280;58763;47.982;11.516;2023-08-01T08:11:15;93096.31;;;17.54;73.49
71107;BME280;58763;47.982;11.516;2023-08-01T08:13:42;93104.63;;;17.57;72.65
71107;BME280;58763;47.982;11.516;2023-08-01T08:16:08;93091.81;;;17.61;75.06
71107;BME280;58763;47.982;11.516;2023-08-01T08:18:34;93065.56;;;17.57;73.22
71107;BME280;58763;47.982;11.516;2023-08-01T08:20:59;93068.28;;;17.57;72.93
71107;BME280;58763;47.982;11.516;2023-08-01T08:23:25;93049.88;;;17.54;72.81
71107;BME280;58763;47.982;11.516;2023-08-01T08:25:51;93051.91;;;17.57;74.37
71107;BME280;58763;47.982;11.516;2023-08-01T08:28:31;93048.53;;;17.48;74.81
71107;BME280;58763;47.982;11.516;2023-08-01T08:30:58;93056.38;;;17.49;75.10
71107;BME280;58763;47.982;11.516;2023-08-01T08:33:23;93066.69;;;17.56;76.01
71107;BME280;58763;47.982;11.516;2023-08-01T08:35:49;93068.19;;;17.69;76.07
71107;BME280;58763;47.982;11.516;2023-08-01T08:38:16;93066.19;;;17.85;75.56
71107;BME280;58763;47.982;11.516;2023-08-01T08:40:46;93061.59;;;17.89;74.42
71107;BME280;58763;47.982;11.516;2023-08-01T08:43:14;93079.53;;;18.06;74.34
71107;BME280;58763;47.982;11.516;2023-08-01T08:45:42;93113.50;;;18.05;75.77
71107;BME280;58763;47.982;11.516;2023-08-01T08:48:17;93103.53;;;18.12;75.65
71107;BME280;58763;47.982;11.516;2023-08-01T08:50:45;93104.03;;;18.18;77.61
71107;BME280;58763;47.982;11.516;2023-08-01T08:53:11;93098.06;;;18.12;77.18
71107;BME280;58763;47.982;11.516;2023-08-01T08:55:41;93100.69;;;18.09;79.08
71107;BME280;58763;47.982;11.516;2023-08-01T08:58:08;93095.59;;;18.07;79.42
71107;BME280;58763;47.982;11.516;2023-08-01T09:00:36;93096.75;;;18.06;79.32
71107;BME280;58763;47.982;11.516;2023-08-01T09:03:04;93099.09;;;17.88;79.74
71107;BME280;58763;47.982;11.516;2023-08-01T09:05:34;93096.63;;;17.83;79.00
71107;BME280;58763;47.982;11.516;2023-08-01T09:08:07;93092.06;;;17.72;79.42
71107;BME280;58763;47.982;11.516;2023-08-01T09:10:36;93099.22;;;17.61;79.90
71107;BME280;58763;47.982;11.516;2023-08-01T09:13:02;93094.19;;;17.63;80.02
71107;BME280;58763;47.982;11.516;2023-08-01T09:15:27;93095.97;;;17.55;79.19
71107;BME280;58763;47.982;11.516;2023-08-01T09:17:55;93090.50;;;17.55;78.95
71107;BME280;58763;47.982;11.516;2023-08-01T09:20:28;93094.03;;;17.56;79.69
71107;BME280;58763;47.982;11.516;2023-08-01T09:22:55;93093.41;;;17.62;79.19
71107;BME280;58763;47.982;11.516;2023-08-01T09:25:31;93089.44;;;17.60;79.09
71107;BME280;58763;47.982;11.516;2023-08-01T09:28:00;93089.53;;;17.63;79.20
71107;BME280;58763;47.982;11.516;2023-08-01T09:30:26;93095.06;;;17.67;78.66
71107;BME280;58763;47.982;11.516;2023-08-01T09:32:56;93098.69;;;17.71;79.05
71107;BME280;58763;47.982;11.516;2023-08-01T09:35:24;93086.88;;;17.67;78.50
71107;BME280;58763;47.982;11.516;2023-08-01T09:37:51;93096.22;;;17.66;78.29
71107;BME280;58763;47.982;11.516;2023-08-01T09:40:19;93093.56;;;17.69;78.57
71107;BME280;58763;47.982;11.516;2023-08-01T09:42:45;93108.56;;;17.60;78.50
71107;BME280;58763;47.982;11.516;2023-08-01T09:45:14;93102.34;;;17.59;79.92
71107;BME280;58763;47.982;11.516;2023-08-01T09:47:41;93105.94;;;17.63;78.44
71107;BME280;58763;47.982;11.516;2023-08-01T09:50:12;93107.66;;;17.71;79.56
71107;BME280;58763;47.982;11.516;2023-08-01T09:52:45;93108.13;;;17.73;78.95
71107;BME280;58763;47.982;11.516;2023-08-01T09:55:29;93113.03;;;17.83;78.89
71107;BME280;58763;47.982;11.516;2023-08-01T09:57:57;93124.66;;;17.96;77.85
71107;BME280;58763;47.982;11.516;2023-08-01T10:00:25;93126.06;;;17.90;78.50
71107;BME280;58763;47.982;11.516;2023-08-01T10:02:52;93132.09;;;17.80;78.58
71107;BME280;58763;47.982;11.516;2023-08-01T10:05:18;93137.38;;;17.88;78.28
71107;BME280;58763;47.982;11.516;2023-08-01T10:07:45;93142.16;;;17.76;77.02
71107;BME280;58763;47.982;11.516;2023-08-01T10:10:13;93153.97;;;17.64;74.77
71107;BME280;58763;47.982;11.516;2023-08-01T10:12:43;93153.91;;;17.61;75.25
71107;BME280;58763;47.982;11.516;2023-08-01T10:15:11;93160.44;;;17.56;73.59
71107;BME280;58763;47.982;11.516;2023-08-01T10:17:37;93170.13;;;17.54;76.12
71107;BME280;58763;47.982;11.516;2023-08-01T10:20:03;93182.72;;;17.43;74.18
71107;BME280;58763;47.982;11.516;2023-08-01T10:22:29;93181.38;;;17.37;75.44
71107;BME280;58763;47.982;11.516;2023-08-01T10:24:55;93166.81;;;17.33;75.67
71107;BME280;58763;47.982;11.516;2023-08-01T10:27:21;93163.03;;;17.37;75.52
71107;BME280;58763;47.982;11.516;2023-08-01T10:30:00;93150.78;;;17.47;77.41
71107;BME280;58763;47.982;11.516;2023-08-01T10:32:34;93154.78;;;17.65;74.36
71107;BME280;58763;47.982;11.516;2023-08-01T10:35:00;93166.06;;;17.79;72.28
71107;BME280;58763;47.982;11.516;2023-08-01T10:37:27;93159.88;;;17.82;72.04
71107;BME280;58763;47.982;11.516;2023-08-01T10:40:04;93161.81;;;17.81;71.89
71107;BME280;58763;47.982;11.516;2023-08-01T10:42:41;93164.19;;;17.83;72.31
71107;BME280;58763;47.982;11.516;2023-08-01T10:45:19;93168.97;;;17.86;72.46
71107;BME280;58763;47.982;11.516;2023-08-01T10:47:45;93174.63;;;17.77;70.86
71107;BME280;58763;47.982;11.516;2023-08-01T10:50:15;93182.22;;;17.68;71.66
71107;BME280;58763;47.982;11.516;2023-08-01T10:52:44;93155.75;;;17.57;73.57
71107;BME280;58763;47.982;11.516;2023-08-01T10:55:10;93157.13;;;17.51;74.44
71107;BME280;58763;47.982;11.516;2023-08-01T10:57:38;93190.00;;;17.23;75.18
71107;BME280;58763;47.982;11.516;2023-08-01T11:00:05;93178.69;;;17.09;75.56
71107;BME280;58763;47.982;11.516;2023-08-01T11:02:40;93180.00;;;16.99;76.27
71107;BME280;58763;47.982;11.516;2023-08-01T11:05:07;93190.72;;;16.92;77.49
71107;BME280;58763;47.982;11.516;2023-08-01T11:07:34;93178.28;;;16.79;78.42
71107;BME280;58763;47.982;11.516;2023-08-01T11:12:33;93180.66;;;16.41;80.79
71107;BME280;58763;47.982;11.516;2023-08-01T11:15:02;93162.72;;;16.40;82.03
71107;BME280;58763;47.982;11.516;2023-08-01T11:17:29;93151.63;;;16.21;82.43
71107;BME280;58763;47.982;11.516;2023-08-01T11:20:11;93134.91;;;16.22;83.36
71107;BME280;58763;47.982;11.516;2023-08-01T11:22:38;93135.47;;;16.28;84.08
71107;BME280;58763;47.982;11.516;2023-08-01T11:25:13;93135.22;;;16.33;83.72
71107;BME280;58763;47.982;11.516;2023-08-01T11:27:39;93131.22;;;16.42;83.53
71107;BME280;58763;47.982;11.516;2023-08-01T11:30:05;93117.19;;;16.56;83.32
71107;BME280;58763;47.982;11.516;2023-08-01T11:32:36;93130.69;;;16.65;83.02
71107;BME280;58763;47.982;11.516;2023-08-01T11:35:02;93160.19;;;16.59;82.70
71107;BME280;58763;47.982;11.516;2023-08-01T11:37:30;93168.97;;;16.40;84.47
71107;BME280;58763;47.982;11.516;2023-08-01T11:39:58;93161.81;;;16.36;85.10
71107;BME280;58763;47.982;11.516;2023-08-01T11:42:24;93159.56;;;16.26;85.40
71107;BME280;58763;47.982;11.516;2023-08-01T11:44:51;93161.13;;;16.27;86.59
71107;BME280;58763;47.982;11.516;2023-08-01T11:47:17;93166.47;;;16.35;86.04
71107;BME280;58763;47.982;11.516;2023-08-01T11:49:47;93172.97;;;16.31;84.56
71107;BME280;58763;47.982;11.516;2023-08-01T11:52:27;93172.47;;;16.41;85.51
71107;BME280;58763;47.982;11.516;2023-08-01T11:54:55;93162.34;;;16.53;84.44
71107;BME280;58763;47.982;11.516;2023-08-01T11:57:22;93153.22;;;16.62;83.95
71107;BME280;58763;47.982;11.516;2023-08-01T11:59:54;93147.44;;;16.79;83.42
71107;BME280;58763;47.982;11.516;2023-08-01T12:02:22;93163.78;;;16.91;83.12
71107;BME280;58763;47.982;11.516;2023-08-01T12:04:48;93153.03;;;16.98;82.04
71107;BME280;58763;47.982;11.516;2023-08-01T12:07:17;93159.31;;;16.98;80.92
71107;BME280;58763;47.982;11.516;2023-08-01T12:10:03;93162.84;;;16.99;81.03
71107;BME280;58763;47.982;11.516;2023-08-01T12:12:29;93165.28;;;17.04;80.57
71107;BME280;58763;47.982;11.516;2023-08-01T12:14:57;93178.06;;;17.00;80.25
71107;BME280;58763;47.982;11.516;2023-08-01T12:17:23;93176.97;;;16.89;80.13
71107;BME280;58763;47.982;11.516;2023-08-01T12:19:51;93170.72;;;16.88;81.00
71107;BME280;58763;47.982;11.516;2023-08-01T12:22:17;93169.69;;;16.93;79.58
71107;BME280;58763;47.982;11.516;2023-08-01T12:24:43;93187.53;;;16.90;80.42
71107;BME280;58763;47.982;11.516;2023-08-01T12:27:09;93185.97;;;16.89;79.42
71107;BME280;58763;47.982;11.516;2023-08-01T12:29:35;93200.25;;;16.98;78.99
71107;BME280;58763;47.982;11.516;2023-08-01T12:32:02;93187.75;;;16.97;79.93
71107;BME280;58763;47.982;11.516;2023-08-01T12:34:29;93195.31;;;17.04;79.30
71107;BME280;58763;47.982;11.516;2023-08-01T12:36:54;93193.22;;;17.13;81.54
71107;BME280;58763;47.982;11.516;2023-08-01T12:39:20;93195.13;;;17.24;80.87
71107;BME280;58763;47.982;11.516;2023-08-01T12:41:46;93189.84;;;17.32;80.96
71107;BME280;58763;47.982;11.516;2023-08-01T12:44:11;93195.03;;;17.37;79.79
71107;BME280;58763;47.982;11.516;2023-08-01T12:46:41;93206.69;;;17.49;81.31
71107;BME280;58763;47.982;11.516;2023-08-01T12:49:07;93207.38;;;17.31;81.11
71107;BME280;58763;47.982;11.516;2023-08-01T12:51:33;93192.97;;;17.18;81.81